sensor_id;sensor_type;location;lat;lon;timestamp;P1;durP1;ratioP1;P2;durP2;ratioP2
70138;SDS011;57507;43.056;0.150;2023-04-03T00:01:53;2.05;;;1.02;;
70138;SDS011;57507;43.056;0.150;2023-04-03T00:04:22;2.55;;;1.17;;
70138;SDS011;57507;43.056;0.150;2023-04-03T00:06:49;4.63;;;1.40;;
70138;SDS011;57507;43.056;0.150;2023-04-03T00:09:18;1.80;;;1.13;;
70138;SDS011;57507;43.056;0.150;2023-04-03T00:11:47;2.55;;;1.30;;
70138;SDS011;57507;43.056;0.150;2023-04-03T00:14:17;5.05;;;1.75;;
70138;SDS011;57507;43.056;0.150;2023-04-03T00:16:43;3.58;;;1.33;;
70138;SDS011;57507;43.056;0.150;2023-04-03T00:19:09;2.95;;;1.50;;
70138;SDS011;57507;43.056;0.150;2023-04-03T00:21:38;2.33;;;1.13;;
70138;SDS011;57507;43.056;0.150;2023-04-03T00:24:07;3.45;;;1.73;;
70138;SDS011;57507;43.056;0.150;2023-04-03T00:26:36;2.10;;;1.27;;
70138;SDS011;57507;43.056;0.150;2023-04-03T00:29:05;1.85;;;1.10;;
70138;SDS011;57507;43.056;0.150;2023-04-03T00:31:34;2.38;;;1.50;;
70138;SDS011;57507;43.056;0.150;2023-04-03T00:34:01;2.72;;;1.25;;
70138;SDS011;57507;43.056;0.150;2023-04-03T00:36:29;2.88;;;1.70;;
70138;SDS011;57507;43.056;0.150;2023-04-03T00:38:55;5.00;;;1.88;;
70138;SDS011;57507;43.056;0.150;2023-04-03T00:41:22;2.88;;;1.70;;
70138;SDS011;57507;43.056;0.150;2023-04-03T00:43:48;3.67;;;1.65;;
70138;SDS011;57507;43.056;0.150;2023-04-03T00:46:17;2.10;;;1.17;;
70138;SDS011;57507;43.056;0.150;2023-04-03T00:48:44;2.45;;;1.27;;
70138;SDS011;57507;43.056;0.150;2023-04-03T00:51:13;2.10;;;1.02;;
70138;SDS011;57507;43.056;0.150;2023-04-03T00:53:46;1.67;;;1.35;;
70138;SDS011;57507;43.056;0.150;2023-04-03T00:56:13;2.53;;;1.33;;
70138;SDS011;57507;43.056;0.150;2023-04-03T00:58:48;3.58;;;1.38;;
70138;SDS011;57507;43.056;0.150;2023-04-03T01:01:18;1.75;;;1.33;;
70138;SDS011;57507;43.056;0.150;2023-04-03T01:03:50;2.05;;;1.23;;
70138;SDS011;57507;43.056;0.150;2023-04-03T01:06:18;2.95;;;1.42;;
70138;SDS011;57507;43.056;0.150;2023-04-03T01:08:59;2.20;;;1.27;;
70138;SDS011;57507;43.056;0.150;2023-04-03T01:11:26;2.08;;;1.48;;
70138;SDS011;57507;43.056;0.150;2023-04-03T01:13:55;1.40;;;1.30;;
70138;SDS011;57507;43.056;0.150;2023-04-03T01:16:22;2.85;;;1.50;;
70138;SDS011;57507;43.056;0.150;2023-04-03T01:18:48;2.22;;;1.25;;
70138;SDS011;57507;43.056;0.150;2023-04-03T01:21:27;2.20;;;1.20;;
70138;SDS011;57507;43.056;0.150;2023-04-03T01:24:17;1.92;;;1.20;;
70138;SDS011;57507;43.056;0.150;2023-04-03T01:26:46;1.73;;;1.25;;
70138;SDS011;57507;43.056;0.150;2023-04-03T01:29:16;2.20;;;1.13;;
70138;SDS011;57507;43.056;0.150;2023-04-03T01:31:57;1.58;;;1.10;;
70138;SDS011;57507;43.056;0.150;2023-04-03T01:34:25;1.92;;;1.30;;
70138;SDS011;57507;43.056;0.150;2023-04-03T01:36:52;3.83;;;1.42;;
70138;SDS011;57507;43.056;0.150;2023-04-03T01:39:18;1.80;;;1.20;;
70138;SDS011;57507;43.056;0.150;2023-04-03T01:41:45;3.95;;;1.25;;
70138;SDS011;57507;43.056;0.150;2023-04-03T01:44:14;1.50;;;0.98;;
70138;SDS011;57507;43.056;0.150;2023-04-03T01:46:43;2.80;;;1.20;;
70138;SDS011;57507;43.056;0.150;2023-04-03T01:49:09;3.20;;;1.38;;
70138;SDS011;57507;43.056;0.150;2023-04-03T01:51:38;2.72;;;1.40;;
70138;SDS011;57507;43.056;0.150;2023-04-03T01:54:04;2.60;;;1.25;;
70138;SDS011;57507;43.056;0.150;2023-04-03T01:56:30;3.03;;;1.30;;
70138;SDS011;57507;43.056;0.150;2023-04-03T01:58:57;2.50;;;1.20;;
70138;SDS011;57507;43.056;0.150;2023-04-03T02:01:23;2.65;;;1.70;;
70138;SDS011;57507;43.056;0.150;2023-04-03T02:03:52;2.03;;;1.23;;
70138;SDS011;57507;43.056;0.150;2023-04-03T02:06:19;2.42;;;1.13;;
70138;SDS011;57507;43.056;0.150;2023-04-03T02:08:45;1.90;;;1.30;;
70138;SDS011;57507;43.056;0.150;2023-04-03T02:11:11;2.15;;;1.30;;
70138;SDS011;57507;43.056;0.150;2023-04-03T02:13:47;1.45;;;1.35;;
70138;SDS011;57507;43.056;0.150;2023-04-03T02:16:15;1.83;;;1.23;;
70138;SDS011;57507;43.056;0.150;2023-04-03T02:18:44;2.35;;;1.20;;
70138;SDS011;57507;43.056;0.150;2023-04-03T02:21:10;1.30;;;1.20;;
70138;SDS011;57507;43.056;0.150;2023-04-03T02:23:37;2.45;;;1.42;;
70138;SDS011;57507;43.056;0.150;2023-04-03T02:26:10;2.42;;;1.50;;
70138;SDS011;57507;43.056;0.150;2023-04-03T02:28:36;1.52;;;0.98;;
70138;SDS011;57507;43.056;0.150;2023-04-03T02:31:03;1.83;;;1.33;;
70138;SDS011;57507;43.056;0.150;2023-04-03T02:33:38;1.35;;;1.17;;
70138;SDS011;57507;43.056;0.150;2023-04-03T02:36:05;2.25;;;1.20;;
70138;SDS011;57507;43.056;0.150;2023-04-03T02:38:31;2.67;;;1.40;;
70138;SDS011;57507;43.056;0.150;2023-04-03T02:41:07;3.72;;;1.60;;
70138;SDS011;57507;43.056;0.150;2023-04-03T02:43:33;2.78;;;1.30;;
70138;SDS011;57507;43.056;0.150;2023-04-03T02:46:22;1.35;;;1.13;;
70138;SDS011;57507;43.056;0.150;2023-04-03T02:48:48;3.53;;;1.40;;
70138;SDS011;57507;43.056;0.150;2023-04-03T02:51:14;2.13;;;1.30;;
70138;SDS011;57507;43.056;0.150;2023-04-03T02:53:41;2.08;;;1.30;;
70138;SDS011;57507;43.056;0.150;2023-04-03T02:56:07;3.67;;;1.52;;
70138;SDS011;57507;43.056;0.150;2023-04-03T02:58:33;2.50;;;1.60;;
70138;SDS011;57507;43.056;0.150;2023-04-03T03:00:59;1.63;;;1.20;;
70138;SDS011;57507;43.056;0.150;2023-04-03T03:03:25;3.10;;;1.40;;
70138;SDS011;57507;43.056;0.150;2023-04-03T03:06:04;3.42;;;1.40;;
70138;SDS011;57507;43.056;0.150;2023-04-03T03:08:31;3.67;;;1.67;;
70138;SDS011;57507;43.056;0.150;2023-04-03T03:10:57;3.72;;;1.40;;
70138;SDS011;57507;43.056;0.150;2023-04-03T03:13:23;2.67;;;1.60;;
70138;SDS011;57507;43.056;0.150;2023-04-03T03:15:50;2.17;;;1.33;;
70138;SDS011;57507;43.056;0.150;2023-04-03T03:18:16;2.28;;;1.17;;
70138;SDS011;57507;43.056;0.150;2023-04-03T03:20:42;3.70;;;1.15;;
70138;SDS011;57507;43.056;0.150;2023-04-03T03:23:08;2.90;;;1.25;;
70138;SDS011;57507;43.056;0.150;2023-04-03T03:25:38;4.20;;;1.73;;
70138;SDS011;57507;43.056;0.150;2023-04-03T03:28:04;2.75;;;1.30;;
70138;SDS011;57507;43.056;0.150;2023-04-03T03:30:31;3.33;;;1.25;;
70138;SDS011;57507;43.056;0.150;2023-04-03T03:32:57;1.80;;;1.13;;
70138;SDS011;57507;43.056;0.150;2023-04-03T03:35:23;4.03;;;1.35;;
70138;SDS011;57507;43.056;0.150;2023-04-03T03:37:49;2.78;;;1.20;;
70138;SDS011;57507;43.056;0.150;2023-04-03T03:40:15;3.40;;;1.27;;
70138;SDS011;57507;43.056;0.150;2023-04-03T03:42:41;1.83;;;0.90;;
70138;SDS011;57507;43.056;0.150;2023-04-03T03:45:08;1.98;;;0.88;;
70138;SDS011;57507;43.056;0.150;2023-04-03T03:47:34;1.35;;;1.00;;
70138;SDS011;57507;43.056;0.150;2023-04-03T03:50:00;2.08;;;0.90;;
70138;SDS011;57507;43.056;0.150;2023-04-03T03:52:26;3.92;;;1.00;;
70138;SDS011;57507;43.056;0.150;2023-04-03T03:54:53;2.35;;;0.82;;
70138;SDS011;57507;43.056;0.150;2023-04-03T03:57:19;2.88;;;0.90;;
70138;SDS011;57507;43.056;0.150;2023-04-03T03:59:45;2.90;;;0.80;;
70138;SDS011;57507;43.056;0.150;2023-04-03T04:02:12;2.97;;;1.10;;
70138;SDS011;57507;43.056;0.150;2023-04-03T04:04:38;1.38;;;0.80;;
70138;SDS011;57507;43.056;0.150;2023-04-03T04:07:04;1.27;;;0.60;;
70138;SDS011;57507;43.056;0.150;2023-04-03T04:09:30;1.98;;;0.88;;
70138;SDS011;57507;43.056;0.150;2023-04-03T04:11:56;2.92;;;0.90;;
70138;SDS011;57507;43.056;0.150;2023-04-03T04:14:22;2.58;;;0.82;;
70138;SDS011;57507;43.056;0.150;2023-04-03T04:16:48;3.08;;;0.95;;
70138;SDS011;57507;43.056;0.150;2023-04-03T04:19:15;1.38;;;0.80;;
70138;SDS011;57507;43.056;0.150;2023-04-03T04:21:41;1.60;;;0.73;;
70138;SDS011;57507;43.056;0.150;2023-04-03T04:24:07;2.63;;;0.70;;
70138;SDS011;57507;43.056;0.150;2023-04-03T04:26:34;0.82;;;0.73;;
70138;SDS011;57507;43.056;0.150;2023-04-03T04:29:00;1.73;;;0.75;;
70138;SDS011;57507;43.056;0.150;2023-04-03T04:31:26;1.17;;;0.82;;
70138;SDS011;57507;43.056;0.150;2023-04-03T04:33:52;0.95;;;0.52;;
70138;SDS011;57507;43.056;0.150;2023-04-03T04:36:18;0.82;;;0.70;;
70138;SDS011;57507;43.056;0.150;2023-04-03T04:38:45;1.08;;;0.60;;
70138;SDS011;57507;43.056;0.150;2023-04-03T04:41:11;1.27;;;0.63;;
70138;SDS011;57507;43.056;0.150;2023-04-03T04:43:37;2.28;;;0.80;;
70138;SDS011;57507;43.056;0.150;2023-04-03T04:48:30;1.85;;;0.50;;
70138;SDS011;57507;43.056;0.150;2023-04-03T04:50:56;1.40;;;0.68;;
70138;SDS011;57507;43.056;0.150;2023-04-03T04:53:22;1.70;;;0.85;;
70138;SDS011;57507;43.056;0.150;2023-04-03T04:55:48;1.20;;;0.70;;
70138;SDS011;57507;43.056;0.150;2023-04-03T04:58:14;0.65;;;0.40;;
70138;SDS011;57507;43.056;0.150;2023-04-03T05:00:40;1.33;;;0.70;;
70138;SDS011;57507;43.056;0.150;2023-04-03T05:03:06;3.08;;;0.90;;
70138;SDS011;57507;43.056;0.150;2023-04-03T05:05:32;2.25;;;0.60;;
70138;SDS011;57507;43.056;0.150;2023-04-03T05:07:59;0.63;;;0.60;;
70138;SDS011;57507;43.056;0.150;2023-04-03T05:10:25;3.65;;;0.80;;
70138;SDS011;57507;43.056;0.150;2023-04-03T05:12:51;1.08;;;0.80;;
70138;SDS011;57507;43.056;0.150;2023-04-03T05:15:17;1.42;;;0.75;;
70138;SDS011;57507;43.056;0.150;2023-04-03T05:17:43;1.52;;;0.50;;
70138;SDS011;57507;43.056;0.150;2023-04-03T05:20:09;0.77;;;0.60;;
70138;SDS011;57507;43.056;0.150;2023-04-03T05:22:36;1.30;;;0.60;;
70138;SDS011;57507;43.056;0.150;2023-04-03T05:25:02;0.73;;;0.60;;
70138;SDS011;57507;43.056;0.150;2023-04-03T05:27:28;0.45;;;0.40;;
70138;SDS011;57507;43.056;0.150;2023-04-03T05:29:54;1.20;;;0.52;;
70138;SDS011;57507;43.056;0.150;2023-04-03T05:32:21;2.13;;;0.85;;
70138;SDS011;57507;43.056;0.150;2023-04-03T05:34:47;1.20;;;0.60;;
70138;SDS011;57507;43.056;0.150;2023-04-03T05:37:13;1.23;;;0.68;;
70138;SDS011;57507;43.056;0.150;2023-04-03T05:39:40;0.60;;;0.57;;
70138;SDS011;57507;43.056;0.150;2023-04-03T05:42:06;1.00;;;0.50;;
70138;SDS011;57507;43.056;0.150;2023-04-03T05:44:33;1.55;;;0.80;;
70138;SDS011;57507;43.056;0.150;2023-04-03T05:46:59;2.58;;;0.70;;
70138;SDS011;57507;43.056;0.150;2023-04-03T05:49:25;1.50;;;0.80;;
70138;SDS011;57507;43.056;0.150;2023-04-03T05:51:51;1.33;;;0.80;;
70138;SDS011;57507;43.056;0.150;2023-04-03T05:54:18;0.93;;;0.80;;
70138;SDS011;57507;43.056;0.150;2023-04-03T05:56:45;1.60;;;0.90;;
70138;SDS011;57507;43.056;0.150;2023-04-03T05:59:11;1.52;;;0.90;;
70138;SDS011;57507;43.056;0.150;2023-04-03T06:01:37;1.83;;;0.93;;
70138;SDS011;57507;43.056;0.150;2023-04-03T06:04:03;1.80;;;1.10;;
70138;SDS011;57507;43.056;0.150;2023-04-03T06:06:45;1.15;;;0.93;;
70138;SDS011;57507;43.056;0.150;2023-04-03T06:09:12;1.75;;;1.00;;
70138;SDS011;57507;43.056;0.150;2023-04-03T06:11:38;1.73;;;0.70;;
70138;SDS011;57507;43.056;0.150;2023-04-03T06:14:04;1.13;;;0.90;;
70138;SDS011;57507;43.056;0.150;2023-04-03T06:16:30;0.98;;;0.88;;
70138;SDS011;57507;43.056;0.150;2023-04-03T06:18:57;1.48;;;1.13;;
70138;SDS011;57507;43.056;0.150;2023-04-03T06:21:23;1.90;;;1.13;;
70138;SDS011;57507;43.056;0.150;2023-04-03T06:23:49;2.40;;;0.95;;
70138;SDS011;57507;43.056;0.150;2023-04-03T06:26:16;1.70;;;0.90;;
70138;SDS011;57507;43.056;0.150;2023-04-03T06:28:42;0.93;;;0.93;;
70138;SDS011;57507;43.056;0.150;2023-04-03T06:31:09;2.75;;;1.10;;
70138;SDS011;57507;43.056;0.150;2023-04-03T06:33:35;1.02;;;0.88;;
70138;SDS011;57507;43.056;0.150;2023-04-03T06:36:03;0.88;;;0.82;;
70138;SDS011;57507;43.056;0.150;2023-04-03T06:38:29;1.35;;;0.77;;
70138;SDS011;57507;43.056;0.150;2023-04-03T06:40:56;0.82;;;0.82;;
70138;SDS011;57507;43.056;0.150;2023-04-03T06:43:22;1.08;;;0.90;;
70138;SDS011;57507;43.056;0.150;2023-04-03T06:45:48;1.63;;;1.50;;
70138;SDS011;57507;43.056;0.150;2023-04-03T06:48:14;0.93;;;0.80;;
70138;SDS011;57507;43.056;0.150;2023-04-03T06:50:40;0.70;;;0.68;;
70138;SDS011;57507;43.056;0.150;2023-04-03T06:53:06;0.90;;;0.63;;
70138;SDS011;57507;43.056;0.150;2023-04-03T06:55:33;2.80;;;0.90;;
70138;SDS011;57507;43.056;0.150;2023-04-03T06:57:59;2.60;;;0.88;;
70138;SDS011;57507;43.056;0.150;2023-04-03T07:00:26;0.60;;;0.60;;
70138;SDS011;57507;43.056;0.150;2023-04-03T07:02:52;1.10;;;0.90;;
70138;SDS011;57507;43.056;0.150;2023-04-03T07:05:18;2.55;;;0.80;;
70138;SDS011;57507;43.056;0.150;2023-04-03T07:07:45;1.17;;;0.98;;
70138;SDS011;57507;43.056;0.150;2023-04-03T07:10:11;1.10;;;0.77;;
70138;SDS011;57507;43.056;0.150;2023-04-03T07:12:37;1.20;;;1.10;;
70138;SDS011;57507;43.056;0.150;2023-04-03T07:15:04;1.30;;;0.90;;
70138;SDS011;57507;43.056;0.150;2023-04-03T07:17:31;2.35;;;0.90;;
70138;SDS011;57507;43.056;0.150;2023-04-03T07:19:57;1.35;;;1.10;;
70138;SDS011;57507;43.056;0.150;2023-04-03T07:22:23;2.05;;;1.00;;
70138;SDS011;57507;43.056;0.150;2023-04-03T07:24:49;1.33;;;1.10;;
70138;SDS011;57507;43.056;0.150;2023-04-03T07:27:16;1.58;;;1.23;;
70138;SDS011;57507;43.056;0.150;2023-04-03T07:29:43;0.77;;;0.70;;
70138;SDS011;57507;43.056;0.150;2023-04-03T07:32:09;0.88;;;0.88;;
70138;SDS011;57507;43.056;0.150;2023-04-03T07:34:38;1.00;;;0.90;;
70138;SDS011;57507;43.056;0.150;2023-04-03T07:37:04;1.75;;;1.10;;
70138;SDS011;57507;43.056;0.150;2023-04-03T07:39:31;1.00;;;0.90;;
70138;SDS011;57507;43.056;0.150;2023-04-03T07:42:01;1.17;;;0.88;;
70138;SDS011;57507;43.056;0.150;2023-04-03T07:44:30;1.83;;;1.05;;
70138;SDS011;57507;43.056;0.150;2023-04-03T07:47:02;1.92;;;1.23;;
70138;SDS011;57507;43.056;0.150;2023-04-03T07:49:29;2.05;;;0.90;;
70138;SDS011;57507;43.056;0.150;2023-04-03T07:52:01;1.17;;;1.00;;
70138;SDS011;57507;43.056;0.150;2023-04-03T07:54:30;0.68;;;0.68;;
70138;SDS011;57507;43.056;0.150;2023-04-03T07:57:04;1.20;;;0.90;;
70138;SDS011;57507;43.056;0.150;2023-04-03T07:59:39;1.35;;;0.80;;
70138;SDS011;57507;43.056;0.150;2023-04-03T08:02:10;1.52;;;0.90;;
70138;SDS011;57507;43.056;0.150;2023-04-03T08:04:42;1.48;;;1.20;;
70138;SDS011;57507;43.056;0.150;2023-04-03T08:07:11;2.45;;;1.17;;
70138;SDS011;57507;43.056;0.150;2023-04-03T08:09:46;2.25;;;1.35;;
70138;SDS011;57507;43.056;0.150;2023-04-03T08:12:17;1.63;;;1.13;;
70138;SDS011;57507;43.056;0.150;2023-04-03T08:15:06;1.08;;;0.90;;
70138;SDS011;57507;43.056;0.150;2023-04-03T08:18:18;1.75;;;0.90;;
70138;SDS011;57507;43.056;0.150;2023-04-03T08:23:51;1.00;;;0.73;;
70138;SDS011;57507;43.056;0.150;2023-04-03T08:26:29;0.75;;;0.75;;
70138;SDS011;57507;43.056;0.150;2023-04-03T08:29:16;1.75;;;0.95;;
70138;SDS011;57507;43.056;0.150;2023-04-03T08:31:42;0.90;;;0.90;;
70138;SDS011;57507;43.056;0.150;2023-04-03T08:34:09;1.75;;;1.20;;
70138;SDS011;57507;43.056;0.150;2023-04-03T08:36:36;2.75;;;0.93;;
70138;SDS011;57507;43.056;0.150;2023-04-03T08:39:08;1.60;;;0.95;;
70138;SDS011;57507;43.056;0.150;2023-04-03T08:41:45;1.33;;;0.90;;
70138;SDS011;57507;43.056;0.150;2023-04-03T08:50:11;1.33;;;1.23;;
70138;SDS011;57507;43.056;0.150;2023-04-03T08:55:22;1.85;;;1.58;;
70138;SDS011;57507;43.056;0.150;2023-04-03T08:57:48;1.10;;;1.00;;
70138;SDS011;57507;43.056;0.150;2023-04-03T09:00:18;3.03;;;1.10;;
70138;SDS011;57507;43.056;0.150;2023-04-03T09:02:54;0.82;;;0.73;;
70138;SDS011;57507;43.056;0.150;2023-04-03T09:08:25;0.80;;;0.80;;
70138;SDS011;57507;43.056;0.150;2023-04-03T09:10:58;1.10;;;1.00;;
70138;SDS011;57507;43.056;0.150;2023-04-03T09:14:07;2.33;;;1.10;;
70138;SDS011;57507;43.056;0.150;2023-04-03T09:21:38;1.00;;;1.00;;
70138;SDS011;57507;43.056;0.150;2023-04-03T09:24:09;0.82;;;0.82;;
70138;SDS011;57507;43.056;0.150;2023-04-03T09:26:41;1.00;;;0.88;;
70138;SDS011;57507;43.056;0.150;2023-04-03T09:29:08;0.88;;;0.88;;
70138;SDS011;57507;43.056;0.150;2023-04-03T09:31:36;1.13;;;0.93;;
70138;SDS011;57507;43.056;0.150;2023-04-03T09:34:24;1.80;;;0.80;;
70138;SDS011;57507;43.056;0.150;2023-04-03T09:36:55;1.00;;;0.88;;
70138;SDS011;57507;43.056;0.150;2023-04-03T09:39:28;0.95;;;0.70;;
70138;SDS011;57507;43.056;0.150;2023-04-03T09:41:56;0.93;;;0.73;;
70138;SDS011;57507;43.056;0.150;2023-04-03T09:44:33;1.65;;;0.70;;
70138;SDS011;57507;43.056;0.150;2023-04-03T09:47:16;1.27;;;0.77;;
70138;SDS011;57507;43.056;0.150;2023-04-03T09:49:43;1.20;;;0.90;;
70138;SDS011;57507;43.056;0.150;2023-04-03T09:52:30;0.80;;;0.75;;
70138;SDS011;57507;43.056;0.150;2023-04-03T09:54:58;0.73;;;0.73;;
70138;SDS011;57507;43.056;0.150;2023-04-03T09:57:32;1.17;;;0.68;;
70138;SDS011;57507;43.056;0.150;2023-04-03T10:00:00;0.70;;;0.70;;
70138;SDS011;57507;43.056;0.150;2023-04-03T10:04:58;1.27;;;0.80;;
70138;SDS011;57507;43.056;0.150;2023-04-03T10:07:32;0.70;;;0.60;;
70138;SDS011;57507;43.056;0.150;2023-04-03T10:12:25;0.73;;;0.70;;
70138;SDS011;57507;43.056;0.150;2023-04-03T10:14:55;0.68;;;0.68;;
70138;SDS011;57507;43.056;0.150;2023-04-03T10:17:25;0.70;;;0.70;;
70138;SDS011;57507;43.056;0.150;2023-04-03T10:19:58;1.23;;;0.80;;
70138;SDS011;57507;43.056;0.150;2023-04-03T10:25:03;0.60;;;0.60;;
70138;SDS011;57507;43.056;0.150;2023-04-03T10:30:19;1.17;;;0.93;;
70138;SDS011;57507;43.056;0.150;2023-04-03T10:35:59;1.00;;;0.90;;
70138;SDS011;57507;43.056;0.150;2023-04-03T10:41:44;1.20;;;0.70;;
70138;SDS011;57507;43.056;0.150;2023-04-03T10:44:24;0.82;;;0.80;;
70138;SDS011;57507;43.056;0.150;2023-04-03T10:47:00;1.00;;;0.90;;
70138;SDS011;57507;43.056;0.150;2023-04-03T10:49:43;1.10;;;0.93;;
70138;SDS011;57507;43.056;0.150;2023-04-03T10:52:20;1.20;;;1.10;;
70138;SDS011;57507;43.056;0.150;2023-04-03T10:57:16;1.30;;;1.02;;
70138;SDS011;57507;43.056;0.150;2023-04-03T10:59:47;1.30;;;0.90;;
70138;SDS011;57507;43.056;0.150;2023-04-03T11:02:27;1.95;;;1.10;;
70138;SDS011;57507;43.056;0.150;2023-04-03T11:04:56;2.53;;;1.30;;
70138;SDS011;57507;43.056;0.150;2023-04-03T11:07:29;2.55;;;1.10;;
70138;SDS011;57507;43.056;0.150;2023-04-03T11:12:47;2.50;;;1.30;;
70138;SDS011;57507;43.056;0.150;2023-04-03T11:15:15;1.25;;;0.95;;
70138;SDS011;57507;43.056;0.150;2023-04-03T11:17:46;1.45;;;1.23;;
70138;SDS011;57507;43.056;0.150;2023-04-03T11:22:43;1.48;;;1.27;;
70138;SDS011;57507;43.056;0.150;2023-04-03T11:30:28;1.30;;;1.13;;
70138;SDS011;57507;43.056;0.150;2023-04-03T11:35:37;1.92;;;1.45;;
70138;SDS011;57507;43.056;0.150;2023-04-03T11:38:10;2.63;;;1.88;;
70138;SDS011;57507;43.056;0.150;2023-04-03T11:40:40;1.55;;;1.23;;
70138;SDS011;57507;43.056;0.150;2023-04-03T11:43:07;3.95;;;1.67;;
70138;SDS011;57507;43.056;0.150;2023-04-03T11:45:53;1.70;;;1.42;;
70138;SDS011;57507;43.056;0.150;2023-04-03T11:50:55;2.00;;;1.20;;
70138;SDS011;57507;43.056;0.150;2023-04-03T11:53:29;0.90;;;0.90;;
70138;SDS011;57507;43.056;0.150;2023-04-03T11:55:56;1.98;;;1.20;;
70138;SDS011;57507;43.056;0.150;2023-04-03T11:58:33;1.25;;;1.00;;
70138;SDS011;57507;43.056;0.150;2023-04-03T12:01:10;0.98;;;0.80;;
70138;SDS011;57507;43.056;0.150;2023-04-03T12:16:30;1.15;;;1.02;;
70138;SDS011;57507;43.056;0.150;2023-04-03T12:22:06;1.10;;;0.70;;
70138;SDS011;57507;43.056;0.150;2023-04-03T12:24:40;1.65;;;0.93;;
70138;SDS011;57507;43.056;0.150;2023-04-03T12:48:59;1.45;;;0.70;;
70138;SDS011;57507;43.056;0.150;2023-04-03T12:51:31;1.02;;;0.77;;
70138;SDS011;57507;43.056;0.150;2023-04-03T12:54:17;2.20;;;1.00;;
70138;SDS011;57507;43.056;0.150;2023-04-03T12:56:47;0.98;;;0.75;;
70138;SDS011;57507;43.056;0.150;2023-04-03T13:01:52;0.65;;;0.60;;
70138;SDS011;57507;43.056;0.150;2023-04-03T13:04:22;1.05;;;0.63;;
70138;SDS011;57507;43.056;0.150;2023-04-03T13:06:57;0.60;;;0.60;;
70138;SDS011;57507;43.056;0.150;2023-04-03T13:09:28;0.90;;;0.73;;
70138;SDS011;57507;43.056;0.150;2023-04-03T13:12:02;1.00;;;0.90;;
70138;SDS011;57507;43.056;0.150;2023-04-03T13:14:32;0.70;;;0.60;;
70138;SDS011;57507;43.056;0.150;2023-04-03T13:17:09;0.77;;;0.77;;
70138;SDS011;57507;43.056;0.150;2023-04-03T13:19:38;1.30;;;0.70;;
70138;SDS011;57507;43.056;0.150;2023-04-03T13:24:56;0.68;;;0.55;;
70138;SDS011;57507;43.056;0.150;2023-04-03T13:27:24;0.82;;;0.82;;
70138;SDS011;57507;43.056;0.150;2023-04-03T13:29:51;0.60;;;0.60;;
70138;SDS011;57507;43.056;0.150;2023-04-03T13:32:22;1.67;;;0.68;;
70138;SDS011;57507;43.056;0.150;2023-04-03T13:34:49;0.80;;;0.70;;
70138;SDS011;57507;43.056;0.150;2023-04-03T13:39:58;1.13;;;0.75;;
70138;SDS011;57507;43.056;0.150;2023-04-03T13:42:26;1.10;;;0.88;;
70138;SDS011;57507;43.056;0.150;2023-04-03T13:47:39;1.17;;;0.85;;
70138;SDS011;57507;43.056;0.150;2023-04-03T13:55:24;0.90;;;0.70;;
70138;SDS011;57507;43.056;0.150;2023-04-03T14:00:37;0.73;;;0.70;;
70138;SDS011;57507;43.056;0.150;2023-04-03T14:03:16;1.02;;;0.93;;
70138;SDS011;57507;43.056;0.150;2023-04-03T14:05:44;1.00;;;0.90;;
70138;SDS011;57507;43.056;0.150;2023-04-03T14:08:13;1.20;;;0.75;;
70138;SDS011;57507;43.056;0.150;2023-04-03T14:10:40;1.10;;;1.00;;
70138;SDS011;57507;43.056;0.150;2023-04-03T14:13:08;1.35;;;0.90;;
70138;SDS011;57507;43.056;0.150;2023-04-03T14:15:37;0.70;;;0.70;;
70138;SDS011;57507;43.056;0.150;2023-04-03T14:18:03;0.82;;;0.80;;
70138;SDS011;57507;43.056;0.150;2023-04-03T14:20:53;0.77;;;0.77;;
70138;SDS011;57507;43.056;0.150;2023-04-03T14:23:22;1.02;;;0.85;;
70138;SDS011;57507;43.056;0.150;2023-04-03T14:25:51;0.82;;;0.80;;
70138;SDS011;57507;43.056;0.150;2023-04-03T14:28:27;0.93;;;0.82;;
70138;SDS011;57507;43.056;0.150;2023-04-03T14:30:53;1.83;;;0.80;;
70138;SDS011;57507;43.056;0.150;2023-04-03T14:33:22;0.98;;;0.73;;
70138;SDS011;57507;43.056;0.150;2023-04-03T14:35:51;0.85;;;0.60;;
70138;SDS011;57507;43.056;0.150;2023-04-03T14:38:27;0.77;;;0.68;;
70138;SDS011;57507;43.056;0.150;2023-04-03T14:40:54;0.70;;;0.70;;
70138;SDS011;57507;43.056;0.150;2023-04-03T14:43:23;1.23;;;0.75;;
70138;SDS011;57507;43.056;0.150;2023-04-03T14:45:54;2.20;;;0.80;;
70138;SDS011;57507;43.056;0.150;2023-04-03T14:48:24;1.40;;;0.80;;
70138;SDS011;57507;43.056;0.150;2023-04-03T14:50:53;1.67;;;1.10;;
70138;SDS011;57507;43.056;0.150;2023-04-03T14:53:19;1.92;;;0.85;;
70138;SDS011;57507;43.056;0.150;2023-04-03T14:55:51;1.33;;;1.00;;
70138;SDS011;57507;43.056;0.150;2023-04-03T14:58:23;1.77;;;0.90;;
70138;SDS011;57507;43.056;0.150;2023-04-03T15:00:49;2.67;;;1.00;;
70138;SDS011;57507;43.056;0.150;2023-04-03T15:03:17;1.00;;;0.90;;
70138;SDS011;57507;43.056;0.150;2023-04-03T15:05:45;1.45;;;0.90;;
70138;SDS011;57507;43.056;0.150;2023-04-03T15:08:16;0.73;;;0.70;;
70138;SDS011;57507;43.056;0.150;2023-04-03T15:10:46;0.90;;;0.70;;
70138;SDS011;57507;43.056;0.150;2023-04-03T15:13:23;2.88;;;0.80;;
70138;SDS011;57507;43.056;0.150;2023-04-03T15:15:50;0.70;;;0.70;;
70138;SDS011;57507;43.056;0.150;2023-04-03T15:18:23;1.00;;;0.80;;
70138;SDS011;57507;43.056;0.150;2023-04-03T15:20:51;0.70;;;0.70;;
70138;SDS011;57507;43.056;0.150;2023-04-03T15:23:17;1.25;;;0.90;;
70138;SDS011;57507;43.056;0.150;2023-04-03T15:25:44;0.98;;;0.77;;
70138;SDS011;57507;43.056;0.150;2023-04-03T15:28:18;2.20;;;0.95;;
70138;SDS011;57507;43.056;0.150;2023-04-03T15:30:44;1.38;;;0.80;;
70138;SDS011;57507;43.056;0.150;2023-04-03T15:33:10;2.55;;;0.95;;
70138;SDS011;57507;43.056;0.150;2023-04-03T15:35:37;1.55;;;0.70;;
70138;SDS011;57507;43.056;0.150;2023-04-03T15:38:03;0.88;;;0.70;;
70138;SDS011;57507;43.056;0.150;2023-04-03T15:40:29;1.30;;;0.70;;
70138;SDS011;57507;43.056;0.150;2023-04-03T15:42:55;2.33;;;0.70;;
70138;SDS011;57507;43.056;0.150;2023-04-03T15:45:21;1.00;;;0.93;;
70138;SDS011;57507;43.056;0.150;2023-04-03T15:47:48;1.08;;;0.65;;
70138;SDS011;57507;43.056;0.150;2023-04-03T15:50:14;1.65;;;0.77;;
70138;SDS011;57507;43.056;0.150;2023-04-03T15:52:40;0.90;;;0.65;;
70138;SDS011;57507;43.056;0.150;2023-04-03T15:55:07;1.83;;;0.95;;
70138;SDS011;57507;43.056;0.150;2023-04-03T15:57:33;0.60;;;0.60;;
70138;SDS011;57507;43.056;0.150;2023-04-03T15:59:59;0.82;;;0.70;;
70138;SDS011;57507;43.056;0.150;2023-04-03T16:02:32;1.20;;;0.70;;
70138;SDS011;57507;43.056;0.150;2023-04-03T16:04:59;2.17;;;0.90;;
70138;SDS011;57507;43.056;0.150;2023-04-03T16:07:25;0.90;;;0.60;;
70138;SDS011;57507;43.056;0.150;2023-04-03T16:09:54;1.98;;;0.52;;
70138;SDS011;57507;43.056;0.150;2023-04-03T16:12:26;1.45;;;0.63;;
70138;SDS011;57507;43.056;0.150;2023-04-03T16:14:55;0.98;;;0.80;;
70138;SDS011;57507;43.056;0.150;2023-04-03T16:17:21;1.10;;;0.60;;
70138;SDS011;57507;43.056;0.150;2023-04-03T16:19:48;0.82;;;0.80;;
70138;SDS011;57507;43.056;0.150;2023-04-03T16:22:14;1.00;;;0.70;;
70138;SDS011;57507;43.056;0.150;2023-04-03T16:24:40;2.83;;;0.80;;
70138;SDS011;57507;43.056;0.150;2023-04-03T16:27:09;0.60;;;0.60;;
70138;SDS011;57507;43.056;0.150;2023-04-03T16:29:36;0.90;;;0.90;;
70138;SDS011;57507;43.056;0.150;2023-04-03T16:32:02;1.95;;;0.90;;
70138;SDS011;57507;43.056;0.150;2023-04-03T16:34:32;1.75;;;0.90;;
70138;SDS011;57507;43.056;0.150;2023-04-03T16:37:01;1.35;;;1.00;;
70138;SDS011;57507;43.056;0.150;2023-04-03T16:39:30;1.48;;;1.30;;
70138;SDS011;57507;43.056;0.150;2023-04-03T16:41:57;1.90;;;1.08;;
70138;SDS011;57507;43.056;0.150;2023-04-03T16:44:23;0.60;;;0.60;;
70138;SDS011;57507;43.056;0.150;2023-04-03T16:46:49;1.58;;;0.70;;
70138;SDS011;57507;43.056;0.150;2023-04-03T16:49:15;1.00;;;0.77;;
70138;SDS011;57507;43.056;0.150;2023-04-03T16:51:41;0.68;;;0.60;;
70138;SDS011;57507;43.056;0.150;2023-04-03T16:54:16;0.70;;;0.70;;